createdAt,value
2018-06-05T00:02:28.093Z,100206.43
2018-06-05T00:04:56.188Z,100204.86
2018-06-05T00:07:24.288Z,100204.08
2018-06-05T00:09:52.401Z,100205.52
2018-06-05T00:12:20.471Z,100201.51
2018-06-05T00:14:48.844Z,100198.55
2018-06-05T00:17:16.900Z,100194.38
2018-06-05T00:19:44.954Z,100189.02
2018-06-05T00:22:13.015Z,100193.79
2018-06-05T00:24:41.908Z,100189.77
2018-06-05T00:27:10.283Z,100192.56
2018-06-05T00:29:38.387Z,100189.98
2018-06-05T00:32:06.618Z,100190.58
2018-06-05T00:34:34.731Z,100192.39
2018-06-05T00:37:02.852Z,100194.95
2018-06-05T00:39:31.021Z,100196.15
2018-06-05T00:41:59.189Z,100195.93
2018-06-05T00:44:27.665Z,100198.19
2018-06-05T00:46:55.832Z,100195.78
2018-06-05T00:49:23.937Z,100197.61
2018-06-05T00:52:03.336Z,100198.41
2018-06-05T00:54:31.597Z,100197.03
2018-06-05T00:56:59.873Z,100206.58
2018-06-05T00:59:28.050Z,100197.41
2018-06-05T01:01:56.135Z,100201.64
2018-06-05T01:04:24.162Z,100198.86
2018-06-05T01:06:52.204Z,100201.05
2018-06-05T01:09:20.279Z,100198.44
2018-06-05T01:11:48.331Z,100196.06
2018-06-05T01:14:16.439Z,100198.05
2018-06-05T01:16:44.507Z,100197.30
2018-06-05T01:19:12.552Z,100199.45
2018-06-05T01:21:40.583Z,100197.66
2018-06-05T01:24:08.789Z,100194.67
2018-06-05T01:26:36.867Z,100190.33
2018-06-05T01:29:05.064Z,100188.13
2018-06-05T01:31:33.318Z,100187.16
2018-06-05T01:34:09.292Z,100188.14
2018-06-05T01:36:37.335Z,100189.16
2018-06-05T01:39:08.501Z,100189.36
2018-06-05T01:41:36.978Z,100188.95
2018-06-05T01:44:05.155Z,100189.36
2018-06-05T01:46:33.187Z,100189.19
2018-06-05T01:49:01.223Z,100190.97
2018-06-05T01:51:29.276Z,100187.59
2018-06-05T01:53:57.323Z,100187.80
2018-06-05T01:56:25.346Z,100184.00
2018-06-05T01:58:53.411Z,100180.23
2018-06-05T02:01:21.467Z,100174.84
2018-06-05T02:03:49.479Z,100186.37
2018-06-05T02:06:17.521Z,100182.44
2018-06-05T02:08:45.900Z,100185.61
2018-06-05T02:11:13.985Z,100184.59
2018-06-05T02:13:42.047Z,100187.00
2018-06-05T02:16:10.183Z,100188.59
2018-06-05T02:18:38.304Z,100184.62
2018-06-05T02:21:06.453Z,100181.62
2018-06-05T02:23:34.641Z,100195.34
2018-06-05T02:26:02.763Z,100189.39
2018-06-05T02:28:30.952Z,100191.17
2018-06-05T02:30:59.221Z,100195.56
2018-06-05T02:33:27.375Z,100188.39
2018-06-05T02:35:55.504Z,100190.79
2018-06-05T02:38:23.556Z,100191.77
2018-06-05T02:40:53.060Z,100195.17
2018-06-05T02:43:21.527Z,100194.98
2018-06-05T02:45:50.168Z,100191.39
2018-06-05T02:48:18.232Z,100193.19
2018-06-05T02:50:46.295Z,100188.39
2018-06-05T02:53:14.344Z,100193.78
2018-06-05T02:55:42.389Z,100192.80
2018-06-05T02:58:10.407Z,100190.39
2018-06-05T03:00:38.450Z,100188.59
2018-06-05T03:03:06.507Z,100192.17
2018-06-05T03:05:34.555Z,100188.00
2018-06-05T03:08:02.607Z,100193.37
2018-06-05T03:10:30.650Z,100192.77
2018-06-05T03:12:58.690Z,100199.13
2018-06-05T03:15:26.716Z,100203.49
2018-06-05T03:17:54.788Z,100204.09
2018-06-05T03:20:22.806Z,100203.08
2018-06-05T03:22:50.862Z,100201.30
2018-06-05T03:25:18.898Z,100210.43
2018-06-05T03:27:46.952Z,100212.83
2018-06-05T03:30:15.255Z,100216.99
2018-06-05T03:32:43.324Z,100213.42
2018-06-05T03:35:11.352Z,100219.56
2018-06-05T03:37:39.435Z,100220.56
2018-06-05T03:40:07.804Z,100220.17
2018-06-05T03:42:35.937Z,100225.34
2018-06-05T03:45:04.044Z,100229.52
2018-06-05T03:47:32.227Z,100228.70
2018-06-05T03:50:00.409Z,100223.34
2018-06-05T03:52:28.646Z,100222.52
2018-06-05T03:54:56.907Z,100233.37
2018-06-05T03:57:24.931Z,100228.45
2018-06-05T03:59:52.960Z,100233.82
2018-06-05T04:02:21.001Z,100232.45
2018-06-05T04:04:49.030Z,100237.44
2018-06-05T04:07:17.071Z,100231.25
2018-06-05T04:09:45.107Z,100235.05
2018-06-05T04:12:13.134Z,100245.71
2018-06-05T04:14:41.180Z,100239.94
2018-06-05T04:17:09.223Z,100242.52
2018-06-05T04:19:37.268Z,100239.91
2018-06-05T04:22:05.307Z,100248.02
2018-06-05T04:24:33.348Z,100247.25
2018-06-05T04:27:01.724Z,100243.11
2018-06-05T04:29:29.743Z,100246.53
2018-06-05T04:31:57.774Z,100245.94
2018-06-05T04:34:25.811Z,100245.30
2018-06-05T04:36:53.840Z,100246.78
2018-06-05T04:39:21.886Z,100251.13
2018-06-05T04:41:49.916Z,100251.34
2018-06-05T04:44:17.938Z,100244.13
2018-06-05T04:46:45.995Z,100253.13
2018-06-05T04:49:14.035Z,100248.73
2018-06-05T04:51:42.100Z,100245.16
2018-06-05T04:54:10.183Z,100244.72
2018-06-05T04:56:38.541Z,100251.66
2018-06-05T04:59:06.702Z,100253.27
2018-06-05T05:01:34.807Z,100252.52
2018-06-05T05:04:02.989Z,100253.36
2018-06-05T05:06:31.156Z,100256.52
2018-06-05T05:08:59.321Z,100255.73
2018-06-05T05:11:27.481Z,100247.88
2018-06-05T05:13:55.580Z,100253.30
2018-06-05T05:16:23.766Z,100255.69
2018-06-05T05:18:51.976Z,100261.08
2018-06-05T05:21:20.020Z,100264.39
2018-06-05T05:23:48.066Z,100262.44
2018-06-05T05:26:16.090Z,100266.86
2018-06-05T05:28:44.147Z,100263.86
2018-06-05T05:31:12.194Z,100258.21
2018-06-05T05:33:40.267Z,100262.84
2018-06-05T05:36:08.295Z,100266.41
2018-06-05T05:38:36.340Z,100263.45
2018-06-05T05:41:04.388Z,100268.00
2018-06-05T05:43:32.435Z,100268.99
2018-06-05T05:46:00.512Z,100274.77
2018-06-05T05:48:28.537Z,100274.34
2018-06-05T05:50:56.579Z,100279.12
2018-06-05T05:53:24.619Z,100277.94
2018-06-05T05:55:52.984Z,100275.98
2018-06-05T05:58:21.028Z,100279.96
2018-06-05T06:00:49.079Z,100281.37
2018-06-05T06:03:17.176Z,100279.37
2018-06-05T06:05:45.286Z,100276.11
2018-06-05T06:08:13.355Z,100277.20
2018-06-05T06:10:41.465Z,100278.16
2018-06-05T06:13:09.532Z,100284.74
2018-06-05T06:15:37.628Z,100289.11
2018-06-05T06:18:05.744Z,100284.17
2018-06-05T06:20:33.881Z,100292.28
2018-06-05T06:23:01.923Z,100286.72
2018-06-05T06:25:30.517Z,100294.30
2018-06-05T06:27:58.563Z,100297.24
2018-06-05T06:30:26.615Z,100302.45
2018-06-05T06:32:54.699Z,100305.48
2018-06-05T06:35:22.784Z,100298.84
2018-06-05T06:37:50.861Z,100303.25
2018-06-05T06:40:18.901Z,100302.52
2018-06-05T06:42:46.939Z,100308.89
2018-06-05T06:45:15.003Z,100302.13
2018-06-05T06:47:43.048Z,100304.11
2018-06-05T06:50:11.343Z,100305.70
2018-06-05T06:52:39.399Z,100309.68
2018-06-05T06:55:07.435Z,100309.69
2018-06-05T06:57:35.542Z,100314.70
2018-06-05T07:00:03.678Z,100323.83
2018-06-05T07:02:31.811Z,100314.70
2018-06-05T07:04:59.863Z,100326.80
2018-06-05T07:07:28.027Z,100320.42
2018-06-05T07:09:56.092Z,100321.02
2018-06-05T07:12:27.176Z,100326.98
2018-06-05T07:14:55.244Z,100330.77
2018-06-05T07:17:23.311Z,100333.73
2018-06-05T07:19:51.360Z,100338.30
2018-06-05T07:22:19.463Z,100327.12
2018-06-05T07:24:47.575Z,100329.14
2018-06-05T07:27:15.624Z,100336.13
2018-06-05T07:29:43.649Z,100340.12
2018-06-05T07:32:11.695Z,100338.73
2018-06-05T07:34:39.750Z,100335.55
2018-06-05T07:37:07.771Z,100345.50
2018-06-05T07:39:35.827Z,100340.75
2018-06-05T07:42:03.868Z,100330.02
2018-06-05T07:44:31.940Z,100337.56
2018-06-05T07:46:59.991Z,100335.98
2018-06-05T07:49:28.074Z,100338.13
2018-06-05T07:51:56.087Z,100347.26
2018-06-05T07:54:24.231Z,100350.10
2018-06-05T07:56:52.279Z,100347.12
2018-06-05T07:59:20.314Z,100347.94
2018-06-05T08:01:48.558Z,100347.92
2018-06-05T08:04:16.640Z,100339.21
2018-06-05T08:06:44.692Z,100340.21
2018-06-05T08:09:12.932Z,100348.78
2018-06-05T08:11:41.147Z,100350.56
2018-06-05T08:14:09.422Z,100340.20
2018-06-05T08:16:37.471Z,100349.16
2018-06-05T08:19:05.539Z,100347.18
2018-06-05T08:21:33.587Z,100346.95
2018-06-05T08:24:01.671Z,100355.69
2018-06-05T08:26:42.473Z,100355.87
2018-06-05T08:29:10.541Z,100352.27
2018-06-05T08:31:38.919Z,100348.50
2018-06-05T08:34:07.014Z,100342.70
2018-06-05T08:36:35.168Z,100351.66
2018-06-05T08:39:03.448Z,100352.84
2018-06-05T08:41:31.799Z,100353.05
2018-06-05T08:44:00.097Z,100356.84
2018-06-05T08:46:28.439Z,100358.25
2018-06-05T08:48:56.520Z,100350.28
2018-06-05T08:51:24.791Z,100361.44
2018-06-05T08:53:52.924Z,100359.83
2018-06-05T08:56:20.991Z,100362.64
2018-06-05T08:58:49.051Z,100356.64
2018-06-05T09:01:17.123Z,100357.83
2018-06-05T09:03:45.180Z,100354.02
2018-06-05T09:06:13.257Z,100347.67
2018-06-05T09:08:41.319Z,100355.47
2018-06-05T09:11:09.404Z,100355.04
2018-06-05T09:13:37.536Z,100358.42
2018-06-05T09:16:05.664Z,100359.00
2018-06-05T09:18:33.816Z,100353.80
2018-06-05T09:21:02.081Z,100350.55
2018-06-05T09:23:30.729Z,100353.91
2018-06-05T09:25:58.980Z,100345.94
2018-06-05T09:28:27.077Z,100352.53
2018-06-05T09:30:55.285Z,100355.89
2018-06-05T09:33:23.399Z,100358.05
2018-06-05T09:35:51.519Z,100360.24
2018-06-05T09:38:19.572Z,100364.44
2018-06-05T09:40:47.623Z,100363.45
2018-06-05T09:43:15.696Z,100367.59
2018-06-05T09:45:43.739Z,100358.25
2018-06-05T09:48:12.132Z,100360.46
2018-06-05T09:50:44.376Z,100372.66
2018-06-05T09:53:12.483Z,100360.17
2018-06-05T09:55:40.605Z,100365.87
2018-06-05T09:58:08.907Z,100360.04
2018-06-05T10:00:42.354Z,100367.41
2018-06-05T10:03:10.601Z,100366.06
2018-06-05T10:05:38.684Z,100372.86
2018-06-05T10:08:06.813Z,100364.09
2018-06-05T10:10:34.931Z,100367.34
2018-06-05T10:13:02.996Z,100366.66
2018-06-05T10:15:31.047Z,100365.41
2018-06-05T10:17:59.079Z,100368.20
2018-06-05T10:20:27.132Z,100364.14
2018-06-05T10:22:55.159Z,100359.33
2018-06-05T10:25:23.196Z,100365.30
2018-06-05T10:27:51.259Z,100360.27
2018-06-05T10:30:19.272Z,100360.41
2018-06-05T10:32:47.591Z,100356.64
2018-06-05T10:35:15.627Z,100360.04
2018-06-05T10:37:43.682Z,100358.96
2018-06-05T10:40:12.218Z,100352.94
2018-06-05T10:42:40.243Z,100351.77
2018-06-05T10:45:08.384Z,100347.38
2018-06-05T10:47:36.554Z,100352.78
2018-06-05T10:50:04.684Z,100349.94
2018-06-05T10:52:34.025Z,100347.00
2018-06-05T10:55:02.334Z,100342.48
2018-06-05T10:57:30.529Z,100343.89
2018-06-05T10:59:59.024Z,100351.09
2018-06-05T11:02:27.104Z,100346.52
2018-06-05T11:04:55.241Z,100346.88
2018-06-05T11:07:23.303Z,100345.64
2018-06-05T11:09:51.363Z,100344.73
2018-06-05T11:12:19.431Z,100356.89
2018-06-05T11:14:47.469Z,100358.76
2018-06-05T11:17:15.562Z,100348.03
2018-06-05T11:19:43.612Z,100344.05
2018-06-05T11:22:11.663Z,100343.69
2018-06-05T11:24:39.712Z,100344.20
2018-06-05T11:27:07.751Z,100336.94
2018-06-05T11:29:35.794Z,100335.39
2018-06-05T11:32:03.831Z,100333.89
2018-06-05T11:34:31.886Z,100335.37
2018-06-05T11:36:59.917Z,100333.75
2018-06-05T11:39:27.960Z,100329.14
2018-06-05T11:41:56.446Z,100328.34
2018-06-05T11:44:24.489Z,100335.61
2018-06-05T11:46:52.609Z,100343.95
2018-06-05T11:49:20.655Z,100335.34
2018-06-05T11:51:48.708Z,100305.92
2018-06-05T11:54:16.815Z,100332.53
2018-06-05T11:56:44.823Z,100334.18
2018-06-05T11:59:12.852Z,100329.06
2018-06-05T12:01:40.893Z,100326.38
2018-06-05T12:04:08.911Z,100326.23
2018-06-05T12:06:36.963Z,100333.11
2018-06-05T12:09:07.264Z,100319.94
2018-06-05T12:11:35.368Z,100325.30
2018-06-05T12:14:03.667Z,100324.33
2018-06-05T12:16:31.724Z,100323.64
2018-06-05T12:18:59.772Z,100316.14
2018-06-05T12:21:27.840Z,100314.20
2018-06-05T12:23:55.898Z,100311.91
2018-06-05T12:26:23.981Z,100316.61
2018-06-05T12:28:52.014Z,100311.06
2018-06-05T12:31:20.044Z,100309.44
2018-06-05T12:33:48.099Z,100309.05
2018-06-05T12:36:16.142Z,100309.11
2018-06-05T12:38:44.213Z,100306.09
2018-06-05T12:41:12.275Z,100302.59
2018-06-05T12:43:40.344Z,100296.53
2018-06-05T12:46:08.399Z,100303.73
2018-06-05T12:48:36.452Z,100297.58
2018-06-05T12:51:04.496Z,100304.95
2018-06-05T12:53:32.526Z,100300.80
2018-06-05T12:56:00.585Z,100296.41
2018-06-05T12:58:28.836Z,100302.76
2018-06-05T13:00:56.944Z,100300.55
2018-06-05T13:03:25.036Z,100301.58
2018-06-05T13:05:53.176Z,100293.89
2018-06-05T13:08:21.259Z,100297.26
2018-06-05T13:10:49.301Z,100302.85
2018-06-05T13:13:17.363Z,100300.00
2018-06-05T13:15:45.404Z,100302.20
2018-06-05T13:18:13.429Z,100290.95
2018-06-05T13:20:41.552Z,100296.58
2018-06-05T13:23:09.692Z,100294.64
2018-06-05T13:25:37.738Z,100303.00
2018-06-05T13:28:06.025Z,100295.20
2018-06-05T13:30:34.596Z,100300.66
2018-06-05T13:33:02.783Z,100296.19
2018-06-05T13:35:30.909Z,100294.19
2018-06-05T13:37:59.074Z,100298.83
2018-06-05T13:40:27.187Z,100290.11
2018-06-05T13:42:55.724Z,100292.88
2018-06-05T13:45:23.775Z,100287.19
2018-06-05T13:47:51.810Z,100289.23
2018-06-05T13:50:19.880Z,100285.63
2018-06-05T13:52:47.940Z,100284.28
2018-06-05T13:55:15.979Z,100279.72
2018-06-05T13:57:44.054Z,100285.03
2018-06-05T14:00:12.088Z,100282.27
2018-06-05T14:02:40.152Z,100285.30
2018-06-05T14:05:08.240Z,100285.59
2018-06-05T14:07:36.271Z,100274.66
2018-06-05T14:10:04.307Z,100281.09
2018-06-05T14:12:32.348Z,100281.53
2018-06-05T14:15:00.376Z,100281.80
2018-06-05T14:17:28.443Z,100282.27
2018-06-05T14:19:56.467Z,100279.20
2018-06-05T14:22:24.516Z,100279.88
2018-06-05T14:24:52.546Z,100277.17
2018-06-05T14:27:20.575Z,100275.80
2018-06-05T14:29:48.886Z,100277.73
2018-06-05T14:32:16.947Z,100274.17
2018-06-05T14:34:45.000Z,100273.25
2018-06-05T14:37:13.039Z,100272.55
2018-06-05T14:39:41.081Z,100272.70
2018-06-05T14:42:09.108Z,100265.77
2018-06-05T14:44:37.139Z,100264.98
2018-06-05T14:47:05.167Z,100268.25
2018-06-05T14:49:33.447Z,100271.81
2018-06-05T14:52:01.472Z,100268.00
2018-06-05T14:54:30.121Z,100282.90
2018-06-05T14:56:58.239Z,100273.81
2018-06-05T14:59:26.287Z,100269.85
2018-06-05T15:01:54.345Z,100263.70
2018-06-05T15:04:22.379Z,100262.05
2018-06-05T15:06:50.628Z,100264.77
2018-06-05T15:09:18.677Z,100258.39
2018-06-05T15:11:46.905Z,100258.39
2018-06-05T15:14:15.705Z,100244.68
2018-06-05T15:16:43.784Z,100247.70
2018-06-05T15:19:13.891Z,100252.41
2018-06-05T15:21:41.938Z,100247.59
2018-06-05T15:24:10.180Z,100251.59
2018-06-05T15:26:38.301Z,100242.95
2018-06-05T15:29:07.625Z,100247.64
2018-06-05T15:31:35.742Z,100244.04
2018-06-05T15:34:04.103Z,100237.11
2018-06-05T15:36:32.365Z,100240.43
2018-06-05T15:39:00.544Z,100235.57
2018-06-05T15:41:29.145Z,100230.15
2018-06-05T15:43:57.373Z,100235.51
2018-06-05T15:46:25.488Z,100229.56
2018-06-05T15:48:53.571Z,100225.72
2018-06-05T15:51:22.203Z,100225.83
2018-06-05T15:53:50.376Z,100225.03
2018-06-05T15:56:18.432Z,100218.45
2018-06-05T15:58:46.497Z,100227.66
2018-06-05T16:01:15.032Z,100221.11
2018-06-05T16:03:43.309Z,100222.11
2018-06-05T16:06:11.384Z,100231.30
2018-06-05T16:08:39.548Z,100224.55
2018-06-05T16:11:07.751Z,100216.55
2018-06-05T16:13:35.855Z,100214.63
2018-06-05T16:16:04.280Z,100213.47
2018-06-05T16:18:33.376Z,100214.27
2018-06-05T16:21:02.391Z,100216.87
2018-06-05T16:23:30.918Z,100216.20
2018-06-05T16:25:59.142Z,100214.15
2018-06-05T16:28:28.870Z,100217.30
2018-06-05T16:30:56.954Z,100213.30
2018-06-05T16:33:25.327Z,100208.23
2018-06-05T16:35:53.355Z,100201.77
2018-06-05T16:38:21.380Z,100201.13
2018-06-05T16:40:49.422Z,100203.31
2018-06-05T16:43:17.459Z,100201.75
2018-06-05T16:45:45.506Z,100195.28
2018-06-05T16:48:13.564Z,100198.95
2018-06-05T16:50:41.595Z,100194.68
2018-06-05T16:53:09.636Z,100193.08
2018-06-05T16:55:37.805Z,100191.45
2018-06-05T16:58:05.927Z,100189.38
2018-06-05T17:00:34.073Z,100190.47
2018-06-05T17:03:02.417Z,100191.02
2018-06-05T17:05:30.667Z,100193.19
2018-06-05T17:07:58.874Z,100183.88
2018-06-05T17:10:26.917Z,100189.07
2018-06-05T17:12:55.072Z,100188.53
2018-06-05T17:15:23.127Z,100189.48
2018-06-05T17:17:51.208Z,100184.67
2018-06-05T17:20:19.250Z,100187.73
2018-06-05T17:22:47.340Z,100187.41
2018-06-05T17:25:15.380Z,100182.60
2018-06-05T17:27:43.429Z,100190.38
2018-06-05T17:30:11.967Z,100184.36
2018-06-05T17:32:40.277Z,100182.77
2018-06-05T17:35:08.410Z,100183.91
2018-06-05T17:37:36.521Z,100183.91
2018-06-05T17:40:04.686Z,100181.30
2018-06-05T17:42:32.880Z,100184.70
2018-06-05T17:45:01.128Z,100185.31
2018-06-05T17:47:29.308Z,100186.17
2018-06-05T17:49:57.447Z,100189.61
2018-06-05T17:52:25.638Z,100182.67
2018-06-05T17:54:53.738Z,100178.71
2018-06-05T17:57:21.887Z,100181.01
2018-06-05T17:59:49.922Z,100182.13
2018-06-05T18:02:17.999Z,100182.95
2018-06-05T18:04:46.036Z,100185.16
2018-06-05T18:07:14.089Z,100179.35
2018-06-05T18:09:42.100Z,100186.42
2018-06-05T18:12:10.175Z,100182.60
2018-06-05T18:14:38.224Z,100189.48
2018-06-05T18:17:06.806Z,100174.41
2018-06-05T18:19:35.547Z,100178.62
2018-06-05T18:22:03.948Z,100180.66
2018-06-05T18:24:32.577Z,100174.19
2018-06-05T18:27:01.292Z,100179.00
2018-06-05T18:29:30.264Z,100183.59
2018-06-05T18:31:59.617Z,100181.83
2018-06-05T18:34:27.792Z,100190.11
2018-06-05T18:36:55.875Z,100198.48
2018-06-05T18:39:24.199Z,100190.92
2018-06-05T18:41:52.604Z,100187.98
2018-06-05T18:44:21.313Z,100190.08
2018-06-05T18:46:49.964Z,100192.83
2018-06-05T18:49:19.689Z,100188.55
2018-06-05T18:51:48.382Z,100192.64
2018-06-05T18:54:17.107Z,100189.09
2018-06-05T18:56:45.905Z,100194.04
2018-06-05T19:01:41.889Z,100198.34
2018-06-05T19:04:10.571Z,100192.41
2018-06-05T19:06:39.125Z,100198.05
2018-06-05T19:09:09.211Z,100202.74
2018-06-05T19:11:39.220Z,100199.20
2018-06-05T19:14:08.462Z,100206.48
2018-06-05T19:16:36.938Z,100208.01
2018-06-05T19:19:05.536Z,100212.50
2018-06-05T19:21:33.796Z,100215.94
2018-06-05T19:24:01.876Z,100213.63
2018-06-05T19:26:29.915Z,100217.06
2018-06-05T19:28:58.105Z,100218.14
2018-06-05T19:31:26.703Z,100224.45
2018-06-05T19:33:54.843Z,100223.70
2018-06-05T19:36:22.894Z,100227.77
2018-06-05T19:38:50.983Z,100224.61
2018-06-05T19:41:19.029Z,100226.67
2018-06-05T19:43:50.275Z,100229.12
2018-06-05T19:46:18.353Z,100228.59
2018-06-05T19:48:48.145Z,100230.25
2018-06-05T19:51:16.528Z,100236.72
2018-06-05T19:53:44.563Z,100235.58
2018-06-05T19:56:15.964Z,100243.83
2018-06-05T19:58:44.159Z,100244.09
2018-06-05T20:01:12.353Z,100248.34
2018-06-05T20:03:41.622Z,100241.45
2018-06-05T20:06:14.494Z,100242.30
2018-06-05T20:08:42.644Z,100248.14
2018-06-05T20:11:10.693Z,100246.63
2018-06-05T20:13:38.961Z,100253.29
2018-06-05T20:16:07.169Z,100249.36
2018-06-05T20:18:35.556Z,100254.22
2018-06-05T20:21:04.552Z,100259.25
2018-06-05T20:23:32.933Z,100257.13
2018-06-05T20:26:01.261Z,100258.17
2018-06-05T20:28:29.601Z,100259.46
2018-06-05T20:30:57.738Z,100253.31
2018-06-05T20:33:26.151Z,100252.37
2018-06-05T20:35:54.255Z,100251.80
2018-06-05T20:38:22.321Z,100259.22
2018-06-05T20:40:51.452Z,100262.41
2018-06-05T20:43:19.498Z,100265.59
2018-06-05T20:45:47.680Z,100270.20
2018-06-05T20:48:15.788Z,100270.42
2018-06-05T20:50:43.856Z,100277.61
2018-06-05T20:53:12.192Z,100275.45
2018-06-05T20:55:40.255Z,100274.87
2018-06-05T20:58:08.335Z,100278.08
2018-06-05T21:00:36.506Z,100280.28
2018-06-05T21:03:05.183Z,100294.63
2018-06-05T21:05:33.633Z,100284.66
2018-06-05T21:08:01.872Z,100291.25
2018-06-05T21:10:30.058Z,100289.25
2018-06-05T21:12:58.615Z,100289.07
2018-06-05T21:15:26.747Z,100287.09
2018-06-05T21:17:54.844Z,100287.67
2018-06-05T21:20:22.935Z,100289.27
2018-06-05T21:22:50.995Z,100292.42
2018-06-05T21:25:19.484Z,100292.02
2018-06-05T21:27:47.545Z,100293.02
2018-06-05T21:30:15.586Z,100290.44
2018-06-05T21:32:43.643Z,100295.20
2018-06-05T21:35:11.756Z,100297.79
2018-06-05T21:37:39.811Z,100299.38
2018-06-05T21:40:07.860Z,100301.14
2018-06-05T21:42:35.972Z,100304.53
2018-06-05T21:45:04.003Z,100301.73
2018-06-05T21:47:33.214Z,100305.51
2018-06-05T21:50:01.244Z,100315.81
2018-06-05T21:52:29.295Z,100311.23
2018-06-05T21:54:57.332Z,100311.41
2018-06-05T21:57:25.360Z,100311.80
2018-06-05T21:59:53.427Z,100310.58
2018-06-05T22:02:21.487Z,100308.00
2018-06-05T22:04:49.539Z,100310.76
2018-06-05T22:07:17.568Z,100311.36
2018-06-05T22:09:45.615Z,100310.93
2018-06-05T22:12:13.643Z,100312.92
2018-06-05T22:14:41.710Z,100314.47
2018-06-05T22:17:09.738Z,100320.60
2018-06-05T22:19:37.754Z,100318.80
2018-06-05T22:22:05.804Z,100314.95
2018-06-05T22:24:33.833Z,100317.50
2018-06-05T22:27:01.883Z,100319.67
2018-06-05T22:29:29.903Z,100317.84
2018-06-05T22:31:57.951Z,100324.61
2018-06-05T22:34:26.011Z,100319.64
2018-06-05T22:36:54.053Z,100319.21
2018-06-05T22:39:22.254Z,100315.23
2018-06-05T22:41:50.284Z,100315.42
2018-06-05T22:44:18.483Z,100313.04
2018-06-05T22:46:47.247Z,100314.00
2018-06-05T22:49:15.287Z,100309.64
2018-06-05T22:51:43.339Z,100301.87
2018-06-05T22:54:11.407Z,100308.20
2018-06-05T22:56:39.460Z,100306.41
2018-06-05T22:59:07.487Z,100303.02
2018-06-05T23:01:35.551Z,100302.80
2018-06-05T23:04:03.604Z,100302.95
2018-06-05T23:06:31.678Z,100305.95
2018-06-05T23:08:59.740Z,100307.09
2018-06-05T23:11:27.796Z,100305.67
2018-06-05T23:13:55.852Z,100299.47
2018-06-05T23:16:24.235Z,100296.28
2018-06-05T23:18:52.295Z,100304.80
2018-06-05T23:21:20.325Z,100298.63
2018-06-05T23:23:48.433Z,100305.20
2018-06-05T23:26:16.511Z,100305.79
2018-06-05T23:28:44.583Z,100311.96
2018-06-05T23:31:12.628Z,100310.79
2018-06-05T23:33:40.665Z,100312.95
2018-06-05T23:36:08.744Z,100311.75
2018-06-05T23:38:36.827Z,100316.90
2018-06-05T23:41:04.880Z,100313.13
2018-06-05T23:43:33.111Z,100314.67
2018-06-05T23:46:01.385Z,100308.93
2018-06-05T23:48:29.473Z,100306.16
2018-06-05T23:50:57.569Z,100313.50
2018-06-05T23:53:25.700Z,100309.73
2018-06-05T23:55:53.773Z,100310.54
2018-06-05T23:58:21.848Z,100318.25
